Terminal Aerodrome Forecast
Issued by NWS Cleveland, OH

Home | Current Version | Previous Version | Text Only | Print | Product List | Glossary Off
Versions: 1 2 3 4 5 6 7 8 9 10 11 12 13 14 15

278
FTUS41 KCLE 161138
TAFMFD
TAF
KMFD 161138Z 1612/1712 00000KT P6SM BKN200
     FM161400 VRB03KT P6SM FEW045
     FM170200 11004KT P6SM SCT150
     FM170900 15006KT P6SM SCT060=

USA.gov is the U.S. government's official web portal to all federal, state and local government web resources and services.